Time;durP1;ratioP1;P1;durP2;ratioP2;P2;SDS_P1;SDS_P2;PMS_P1;PMS_P2;Temp;Humidity;BMP_temperature;BMP_pressure;BME280_temperature;BME280_humidity;BME280_pressure;Samples;Min_cycle;Max_cycle;Signal;HPM_P1;HPM_P2
2023/01/06 00:00:43;;;;;;;0.70;0.67;;;9.70;99.90;;;;;;5047786;28;20622;-66
2023/01/06 00:03:10;;;;;;;0.83;0.40;;;9.70;99.90;;;;;;5047474;28;20658;-67
2023/01/06 00:05:37;;;;;;;0.50;0.40;;;9.80;99.90;;;;;;5047852;28;20942;-67
2023/01/06 00:08:04;;;;;;;0.50;0.50;;;9.70;99.90;;;;;;5047684;28;20971;-68
2023/01/06 00:10:30;;;;;;;0.30;0.30;;;9.80;99.90;;;;;;5048358;28;20623;-67
2023/01/06 00:12:57;;;;;;;1.67;1.00;;;9.80;99.90;;;;;;5047235;28;20627;-67
2023/01/06 00:15:24;;;;;;;0.60;0.33;;;9.70;99.90;;;;;;5047466;28;20622;-67
2023/01/06 00:17:52;;;;;;;0.93;0.93;;;9.80;99.90;;;;;;5047151;28;20627;-67
2023/01/06 00:20:19;;;;;;;1.13;0.40;;;9.80;99.90;;;;;;5047124;28;21238;-66
2023/01/06 00:22:46;;;;;;;0.50;0.50;;;9.20;99.90;;;;;;5047168;28;20626;-67
2023/01/06 00:25:12;;;;;;;0.30;0.30;;;9.70;99.90;;;;;;5048155;28;20610;-67
2023/01/06 00:27:40;;;;;;;0.40;0.40;;;9.70;99.90;;;;;;5047675;28;20629;-67
2023/01/06 00:30:08;;;;;;;0.40;0.37;;;9.70;99.90;;;;;;5046948;28;21218;-67
2023/01/06 00:32:35;;;;;;;0.80;0.80;;;9.70;99.90;;;;;;5046156;28;20713;-67
2023/01/06 00:35:03;;;;;;;0.60;0.50;;;9.70;99.90;;;;;;5047690;28;20709;-67
2023/01/06 00:37:30;;;;;;;0.40;0.40;;;9.60;99.90;;;;;;5047244;28;20641;-68
2023/01/06 00:39:57;;;;;;;0.77;0.77;;;9.60;99.90;;;;;;5047937;28;20669;-67
2023/01/06 00:42:24;;;;;;;0.50;0.40;;;9.50;99.90;;;;;;5043593;28;20628;-67
2023/01/06 00:44:52;;;;;;;0.50;0.43;;;9.60;99.90;;;;;;5031348;28;20622;-68
2023/01/06 00:47:19;;;;;;;0.30;0.30;;;9.70;99.90;;;;;;5047089;28;21229;-66
2023/01/06 00:49:46;;;;;;;0.53;0.53;;;9.70;99.90;;;;;;5047463;28;20626;-67
2023/01/06 00:52:14;;;;;;;0.70;0.70;;;9.60;99.90;;;;;;5046720;28;20634;-69
2023/01/06 00:54:42;;;;;;;0.40;0.30;;;10.10;99.90;;;;;;5047399;28;20637;-67
2023/01/06 00:57:09;;;;;;;0.50;0.30;;;9.60;99.90;;;;;;5046824;28;20626;-67
2023/01/06 00:59:36;;;;;;;1.07;0.50;;;9.50;99.90;;;;;;5046217;28;20676;-67
2023/01/06 01:02:03;;;;;;;0.63;0.57;;;9.50;99.90;;;;;;5046077;28;20637;-67
2023/01/06 01:04:30;;;;;;;1.17;0.70;;;9.50;99.90;;;;;;5047428;28;20964;-67
2023/01/06 01:06:57;;;;;;;0.80;0.60;;;9.40;99.90;;;;;;5046663;28;20623;-67
2023/01/06 01:09:28;;;;;;;0.40;0.40;;;9.60;99.90;;;;;;5046942;28;20741;-68
2023/01/06 01:12:11;;;;;;;0.70;0.57;;;9.40;99.90;;;;;;5046187;28;20634;-67
2023/01/06 01:14:41;;;;;;;0.30;0.30;;;9.40;99.90;;;;;;5046501;28;21042;-67
2023/01/06 01:17:08;;;;;;;0.37;0.37;;;9.30;99.90;;;;;;5046785;28;20629;-68
2023/01/06 01:19:35;;;;;;;0.43;0.43;;;9.30;99.90;;;;;;5033014;28;20654;-66
2023/01/06 01:22:02;;;;;;;1.23;0.40;;;9.30;99.90;;;;;;5046103;28;21199;-67
2023/01/06 01:24:31;;;;;;;0.43;0.43;;;9.40;99.90;;;;;;5046206;28;20638;-67
2023/01/06 01:26:58;;;;;;;0.40;0.40;;;9.30;99.90;;;;;;5047156;28;20871;-67
2023/01/06 01:29:25;;;;;;;0.97;0.50;;;9.30;99.90;;;;;;5038494;28;21199;-67
2023/01/06 01:31:52;;;;;;;0.40;0.27;;;9.30;99.90;;;;;;5045613;28;20633;-67
2023/01/06 01:34:21;;;;;;;0.60;0.60;;;9.30;99.90;;;;;;5046249;28;20633;-67
2023/01/06 01:36:49;;;;;;;0.53;0.40;;;9.30;99.90;;;;;;5046602;28;20626;-67
2023/01/06 01:39:17;;;;;;;0.40;0.30;;;9.30;99.90;;;;;;5045872;28;20668;-67
2023/01/06 01:41:46;;;;;;;0.40;0.30;;;9.30;99.90;;;;;;5046297;28;20991;-68
2023/01/06 01:44:52;;;;;;;0.70;0.70;;;9.30;99.90;;;;;;5045700;28;20626;-67
2023/01/06 01:47:23;;;;;;;0.50;0.50;;;9.20;99.90;;;;;;5045887;28;21031;-68
2023/01/06 01:49:53;;;;;;;0.63;0.50;;;9.20;99.90;;;;;;5047345;28;20629;-68
2023/01/06 01:52:21;;;;;;;0.40;0.30;;;9.20;99.90;;;;;;5046511;28;20639;-68
2023/01/06 01:54:49;;;;;;;0.67;0.67;;;9.20;99.90;;;;;;5047343;28;20999;-67
2023/01/06 01:57:23;;;;;;;0.40;0.40;;;9.20;99.90;;;;;;5047044;28;20626;-67
2023/01/06 01:59:50;;;;;;;0.40;0.40;;;9.20;99.90;;;;;;5047109;28;20696;-68
2023/01/06 02:02:18;;;;;;;0.83;0.70;;;9.30;99.90;;;;;;5046034;28;21188;-67
2023/01/06 02:04:49;;;;;;;0.93;0.70;;;9.30;99.90;;;;;;5047191;28;20662;-69
2023/01/06 02:07:16;;;;;;;0.73;0.57;;;9.30;99.90;;;;;;5036904;28;21237;-67
2023/01/06 02:09:51;;;;;;;1.60;0.57;;;9.10;99.90;;;;;;5047127;28;20614;-67
2023/01/06 02:12:20;;;;;;;0.53;0.50;;;9.30;99.90;;;;;;5046234;28;20633;-68
2023/01/06 02:14:48;;;;;;;0.60;0.60;;;9.30;99.90;;;;;;5046827;28;20624;-68
2023/01/06 02:17:31;;;;;;;1.33;1.23;;;9.30;99.90;;;;;;5047189;28;20646;-67
2023/01/06 02:20:33;;;;;;;0.50;0.40;;;9.30;99.90;;;;;;5029190;28;20809;-67
2023/01/06 02:23:45;;;;;;;1.73;0.70;;;9.30;99.90;;;;;;5045400;28;20617;-68
2023/01/06 02:26:48;;;;;;;0.63;0.40;;;9.40;99.90;;;;;;5046995;28;20713;-67
2023/01/06 02:29:44;;;;;;;2.53;0.70;;;9.40;99.90;;;;;;5044821;28;20632;-67
2023/01/06 02:32:43;;;;;;;0.47;0.40;;;9.40;99.90;;;;;;5046134;28;21207;-67
2023/01/06 02:35:33;;;;;;;0.40;0.40;;;9.40;99.90;;;;;;5030208;28;20644;-68
2023/01/06 02:38:10;;;;;;;3.80;1.17;;;9.40;99.90;;;;;;5046763;28;20626;-67
2023/01/06 02:40:52;;;;;;;0.50;0.50;;;9.40;99.90;;;;;;5046993;28;21143;-67
2023/01/06 02:43:28;;;;;;;0.40;0.30;;;9.50;99.90;;;;;;5038218;28;20637;-67
2023/01/06 02:46:07;;;;;;;2.10;0.90;;;9.50;99.90;;;;;;5050211;28;20633;-67
2023/01/06 02:48:46;;;;;;;0.53;0.53;;;9.40;99.90;;;;;;5050396;28;21271;-68
2023/01/06 02:51:18;;;;;;;2.40;1.13;;;9.40;99.90;;;;;;5049997;28;20629;-68
2023/01/06 02:53:57;;;;;;;1.00;1.00;;;9.40;99.90;;;;;;5049872;28;21085;-67
2023/01/06 02:56:31;;;;;;;0.70;0.70;;;9.40;99.90;;;;;;5049654;28;20640;-67
2023/01/06 02:59:02;;;;;;;0.97;0.97;;;9.40;99.90;;;;;;5042602;28;20623;-67
2023/01/06 03:01:33;;;;;;;1.87;0.87;;;9.40;99.90;;;;;;5037257;28;20610;-68
2023/01/06 03:04:05;;;;;;;1.33;1.23;;;9.40;99.90;;;;;;5050182;28;20634;-67
2023/01/06 03:06:35;;;;;;;1.90;0.93;;;9.50;99.90;;;;;;5049679;28;20764;-69
2023/01/06 03:09:05;;;;;;;1.07;0.97;;;9.40;99.90;;;;;;5040791;28;20623;-67
2023/01/06 03:11:35;;;;;;;2.43;1.77;;;9.40;99.90;;;;;;5049165;28;20614;-67
2023/01/06 03:14:08;;;;;;;1.00;0.97;;;9.40;99.90;;;;;;5049988;28;20983;-68
2023/01/06 03:16:37;;;;;;;0.90;0.70;;;9.40;99.90;;;;;;5049908;28;20627;-68
2023/01/06 03:19:07;;;;;;;0.80;0.80;;;9.40;99.90;;;;;;5049228;28;20638;-68
2023/01/06 03:21:40;;;;;;;0.93;0.93;;;9.30;99.90;;;;;;5048963;28;20634;-67
2023/01/06 03:24:09;;;;;;;5.03;2.40;;;9.40;99.90;;;;;;5049670;28;20700;-68
2023/01/06 03:26:37;;;;;;;0.83;0.83;;;9.40;99.90;;;;;;5049120;28;20630;-68
2023/01/06 03:29:07;;;;;;;1.00;1.00;;;9.30;99.90;;;;;;5049678;28;20617;-67
2023/01/06 03:31:43;;;;;;;0.50;0.43;;;9.30;99.90;;;;;;5048571;28;20841;-68
2023/01/06 03:34:20;;;;;;;0.70;0.70;;;9.30;99.90;;;;;;5049762;28;20621;-68
2023/01/06 03:36:54;;;;;;;1.00;0.67;;;9.20;99.90;;;;;;5049533;28;21252;-67
2023/01/06 03:39:31;;;;;;;0.80;0.50;;;9.10;99.90;;;;;;5048682;28;20981;-68
2023/01/06 03:44:58;;;;;;;0.43;0.43;;;9.00;99.90;;;;;;5029477;28;20618;-67
2023/01/06 03:47:32;;;;;;;0.50;0.50;;;8.90;99.90;;;;;;5039242;28;21063;-67
2023/01/06 03:50:09;;;;;;;1.17;1.07;;;8.80;99.90;;;;;;5049415;28;20650;-67
2023/01/06 03:52:44;;;;;;;1.20;0.97;;;8.70;99.90;;;;;;5047899;28;20626;-67
2023/01/06 03:55:17;;;;;;;1.13;1.07;;;8.60;99.90;;;;;;5049208;28;20626;-67
2023/01/06 03:57:49;;;;;;;0.80;0.80;;;8.50;99.90;;;;;;5049367;28;20642;-67
2023/01/06 04:00:19;;;;;;;0.73;0.73;;;8.50;99.90;;;;;;5032899;28;20669;-67
2023/01/06 04:02:47;;;;;;;1.00;0.73;;;8.50;99.90;;;;;;5047771;28;20735;-68
2023/01/06 04:05:18;;;;;;;1.03;1.00;;;8.40;99.90;;;;;;5048390;28;20986;-67
2023/01/06 04:07:45;;;;;;;0.57;0.47;;;8.40;99.90;;;;;;5048702;28;21228;-68
2023/01/06 04:10:14;;;;;;;0.50;0.50;;;8.40;99.90;;;;;;5047762;28;20658;-67
2023/01/06 04:12:40;;;;;;;1.07;0.97;;;8.40;99.90;;;;;;5048017;28;20623;-67
2023/01/06 04:15:10;;;;;;;0.77;0.77;;;8.40;99.90;;;;;;5049042;28;20627;-68
2023/01/06 04:17:37;;;;;;;0.40;0.40;;;8.40;99.90;;;;;;5047729;28;20951;-67
2023/01/06 04:20:05;;;;;;;1.30;0.73;;;8.40;99.90;;;;;;5048745;28;20665;-67
2023/01/06 04:22:33;;;;;;;0.83;0.50;;;8.50;99.90;;;;;;5047721;28;20622;-67
2023/01/06 04:25:00;;;;;;;0.30;0.30;;;8.40;99.90;;;;;;5048264;28;20635;-68
2023/01/06 04:27:27;;;;;;;0.87;0.83;;;8.40;99.90;;;;;;5048403;28;20622;-68
2023/01/06 04:29:54;;;;;;;0.80;0.80;;;8.40;99.90;;;;;;5047791;28;20630;-68
2023/01/06 04:32:20;;;;;;;0.50;0.43;;;8.30;99.90;;;;;;5047487;28;20714;-69
2023/01/06 04:34:47;;;;;;;1.47;0.83;;;8.30;99.90;;;;;;5048054;28;21259;-67
2023/01/06 04:37:14;;;;;;;0.70;0.50;;;8.20;99.90;;;;;;5048245;28;21042;-67
2023/01/06 04:39:42;;;;;;;0.57;0.57;;;8.20;99.90;;;;;;5047816;28;20623;-68
2023/01/06 04:42:09;;;;;;;0.83;0.83;;;8.10;99.90;;;;;;5046654;28;20633;-67
2023/01/06 04:44:36;;;;;;;2.40;0.77;;;8.00;99.90;;;;;;5047594;28;20626;-68
2023/01/06 04:47:03;;;;;;;0.43;0.43;;;8.00;99.90;;;;;;5048171;28;20641;-67
2023/01/06 04:49:30;;;;;;;1.13;0.50;;;7.90;99.90;;;;;;5048124;28;20622;-67
2023/01/06 04:51:57;;;;;;;2.57;2.37;;;7.90;99.90;;;;;;5047330;28;20637;-68
2023/01/06 04:54:23;;;;;;;1.23;0.63;;;7.90;99.90;;;;;;5048054;28;20633;-68
2023/01/06 04:56:52;;;;;;;0.87;0.80;;;7.90;99.90;;;;;;5047623;28;20726;-68
2023/01/06 04:59:19;;;;;;;0.80;0.80;;;7.90;99.90;;;;;;5047222;28;20737;-68
2023/01/06 05:01:45;;;;;;;2.00;0.63;;;8.00;99.90;;;;;;5047407;28;20670;-67
2023/01/06 05:04:12;;;;;;;0.80;0.80;;;8.20;99.90;;;;;;5047740;28;20629;-67
2023/01/06 05:06:39;;;;;;;0.70;0.70;;;8.30;99.90;;;;;;5047635;28;20634;-67
2023/01/06 05:09:06;;;;;;;0.70;0.70;;;8.30;99.90;;;;;;5046770;28;21015;-68
2023/01/06 05:11:33;;;;;;;0.50;0.50;;;8.50;99.90;;;;;;5046924;28;20629;-68
2023/01/06 05:14:01;;;;;;;0.93;0.60;;;8.50;99.90;;;;;;5047711;28;20615;-68
2023/01/06 05:16:30;;;;;;;1.20;1.10;;;8.50;99.90;;;;;;5047655;28;20630;-67
2023/01/06 05:18:58;;;;;;;0.63;0.63;;;8.50;99.90;;;;;;5036064;28;20628;-67
2023/01/06 05:21:26;;;;;;;1.07;0.93;;;8.50;99.90;;;;;;5031127;28;20669;-67
2023/01/06 05:23:53;;;;;;;0.73;0.60;;;8.50;99.90;;;;;;5047106;28;20637;-67
2023/01/06 05:26:22;;;;;;;0.60;0.57;;;8.60;99.90;;;;;;5046993;28;20633;-67
2023/01/06 05:28:49;;;;;;;0.83;0.83;;;8.60;99.90;;;;;;5042940;28;20633;-68
2023/01/06 05:31:17;;;;;;;1.83;1.73;;;8.60;99.90;;;;;;5046998;28;20633;-67
2023/01/06 05:33:44;;;;;;;0.50;0.50;;;8.60;99.90;;;;;;5047859;28;20622;-68
2023/01/06 05:36:12;;;;;;;1.67;1.10;;;8.70;99.90;;;;;;5047277;28;20996;-67
2023/01/06 05:38:39;;;;;;;0.40;0.30;;;8.80;99.90;;;;;;5046919;28;20618;-68
2023/01/06 05:41:06;;;;;;;0.53;0.53;;;8.90;99.90;;;;;;5047188;28;21405;-67
2023/01/06 05:43:34;;;;;;;0.40;0.37;;;8.90;99.90;;;;;;5033346;28;20631;-68
2023/01/06 05:46:05;;;;;;;1.13;0.93;;;8.90;99.90;;;;;;5039282;28;20622;-68
2023/01/06 05:48:34;;;;;;;0.60;0.60;;;8.90;99.90;;;;;;5047560;28;20684;-67
2023/01/06 05:51:02;;;;;;;0.60;0.53;;;8.80;99.90;;;;;;5046671;28;21076;-67
2023/01/06 05:53:31;;;;;;;0.93;0.80;;;8.80;99.90;;;;;;5046727;28;20692;-67
2023/01/06 05:56:00;;;;;;;0.60;0.60;;;8.70;99.90;;;;;;5047306;28;20717;-67
2023/01/06 05:58:27;;;;;;;0.60;0.60;;;8.80;99.90;;;;;;5046778;28;20630;-68
2023/01/06 06:00:53;;;;;;;1.50;0.60;;;8.80;99.90;;;;;;5042917;28;20673;-68
2023/01/06 06:03:20;;;;;;;1.47;1.37;;;8.80;99.90;;;;;;5046232;28;20638;-67
2023/01/06 06:05:48;;;;;;;0.70;0.63;;;8.80;99.90;;;;;;5046921;28;20630;-68
2023/01/06 06:08:15;;;;;;;1.03;0.57;;;8.80;99.90;;;;;;5046660;28;21051;-67
2023/01/06 06:10:42;;;;;;;0.87;0.87;;;8.80;99.90;;;;;;5047337;28;20633;-67
2023/01/06 06:13:09;;;;;;;0.70;0.70;;;8.90;99.90;;;;;;5046012;28;20623;-67
2023/01/06 06:15:35;;;;;;;0.83;0.50;;;8.80;99.90;;;;;;5047392;28;20637;-67
2023/01/06 06:18:03;;;;;;;0.80;0.80;;;8.90;99.90;;;;;;5043358;28;20631;-67
2023/01/06 06:20:29;;;;;;;0.40;0.40;;;8.90;99.90;;;;;;5030436;28;20658;-67
2023/01/06 06:22:58;;;;;;;0.50;0.40;;;8.80;99.90;;;;;;5045007;28;20982;-68
2023/01/06 06:25:24;;;;;;;1.00;0.80;;;8.80;99.90;;;;;;5050987;28;20641;-68
2023/01/06 06:27:51;;;;;;;0.73;0.50;;;8.80;99.90;;;;;;5050283;28;21242;-68
2023/01/06 06:30:18;;;;;;;1.13;0.80;;;8.80;99.90;;;;;;5050859;28;20614;-67
2023/01/06 06:32:45;;;;;;;0.77;0.77;;;8.70;99.90;;;;;;5049756;28;20626;-69
2023/01/06 06:35:12;;;;;;;0.93;0.90;;;8.70;99.90;;;;;;5050018;28;20634;-68
2023/01/06 06:37:38;;;;;;;0.60;0.53;;;8.60;99.90;;;;;;5048245;28;20631;-67
2023/01/06 06:40:08;;;;;;;0.70;0.63;;;8.60;99.90;;;;;;5034744;28;20716;-67
2023/01/06 06:42:35;;;;;;;0.73;0.67;;;8.60;99.90;;;;;;5035788;28;20627;-67
2023/01/06 06:45:02;;;;;;;1.40;1.07;;;8.60;99.90;;;;;;5030641;28;20650;-67
2023/01/06 06:47:29;;;;;;;1.33;0.90;;;8.70;99.90;;;;;;5049073;28;20633;-68
2023/01/06 06:49:55;;;;;;;0.70;0.67;;;8.60;99.90;;;;;;5050844;28;20629;-68
2023/01/06 06:52:22;;;;;;;0.93;0.93;;;8.60;99.90;;;;;;5049037;28;20620;-68
2023/01/06 06:54:49;;;;;;;1.50;0.70;;;8.60;99.90;;;;;;5050730;28;20622;-67
2023/01/06 06:57:17;;;;;;;0.60;0.40;;;8.60;99.90;;;;;;5049510;28;20639;-67
2023/01/06 06:59:44;;;;;;;0.50;0.50;;;8.80;99.90;;;;;;5040895;28;21209;-67
2023/01/06 07:02:11;;;;;;;0.93;0.80;;;8.60;99.90;;;;;;5048684;28;20676;-67
2023/01/06 07:04:37;;;;;;;2.20;0.90;;;8.80;99.90;;;;;;5049944;28;20652;-67
2023/01/06 07:07:04;;;;;;;0.60;0.40;;;8.80;99.90;;;;;;5050216;28;20662;-67
2023/01/06 07:09:31;;;;;;;1.20;0.70;;;8.80;99.90;;;;;;5049386;28;20636;-67
2023/01/06 07:11:57;;;;;;;1.33;0.70;;;8.90;99.90;;;;;;5049167;28;20630;-67
2023/01/06 07:14:26;;;;;;;0.67;0.50;;;8.90;99.90;;;;;;5049612;28;20634;-68
2023/01/06 07:16:52;;;;;;;1.13;0.90;;;8.90;99.90;;;;;;5049556;28;20623;-67
2023/01/06 07:19:19;;;;;;;0.47;0.47;;;8.80;99.90;;;;;;5044671;28;20657;-67
2023/01/06 07:21:46;;;;;;;1.53;0.53;;;8.90;99.90;;;;;;5048421;28;20665;-67
2023/01/06 07:24:13;;;;;;;0.50;0.50;;;8.90;99.90;;;;;;5049954;28;20634;-67
2023/01/06 07:26:39;;;;;;;0.77;0.70;;;8.90;99.90;;;;;;5049517;28;21214;-67
2023/01/06 07:29:06;;;;;;;0.50;0.50;;;9.00;99.90;;;;;;5048683;28;21275;-68
2023/01/06 07:31:34;;;;;;;1.43;0.97;;;9.00;99.90;;;;;;5048881;28;20643;-67
2023/01/06 07:34:01;;;;;;;0.70;0.70;;;9.10;99.90;;;;;;5049296;28;20619;-67
2023/01/06 07:36:28;;;;;;;1.37;0.70;;;9.00;99.90;;;;;;5048984;28;21222;-68
2023/01/06 07:38:54;;;;;;;0.70;0.70;;;9.00;99.90;;;;;;5049414;28;20650;-67
2023/01/06 07:41:21;;;;;;;1.10;1.00;;;9.00;99.90;;;;;;5048660;28;20646;-68
2023/01/06 07:43:48;;;;;;;0.80;0.80;;;9.00;99.90;;;;;;5048289;28;21176;-67
2023/01/06 07:46:15;;;;;;;1.03;0.93;;;9.10;99.90;;;;;;5049463;28;20637;-67
2023/01/06 07:48:43;;;;;;;1.27;0.60;;;9.00;99.90;;;;;;5049799;28;20624;-67
2023/01/06 07:51:09;;;;;;;1.00;0.87;;;9.00;99.90;;;;;;5048673;28;21200;-67
2023/01/06 07:53:36;;;;;;;0.70;0.70;;;9.10;99.90;;;;;;5048820;28;20634;-67
2023/01/06 07:56:03;;;;;;;0.60;0.33;;;9.20;99.90;;;;;;5049294;28;20642;-68
2023/01/06 07:58:30;;;;;;;0.60;0.57;;;9.20;99.90;;;;;;5045197;28;20625;-68
2023/01/06 08:00:57;;;;;;;0.50;0.40;;;9.20;99.90;;;;;;5042916;28;20676;-67
2023/01/06 08:03:23;;;;;;;0.60;0.60;;;9.20;99.90;;;;;;5048745;28;20622;-68
2023/01/06 08:05:51;;;;;;;0.83;0.80;;;9.30;99.90;;;;;;5049055;28;20626;-67
2023/01/06 08:08:18;;;;;;;0.77;0.50;;;9.30;99.90;;;;;;5047235;28;20629;-67
2023/01/06 08:10:45;;;;;;;0.50;0.30;;;9.40;99.90;;;;;;5047939;28;20712;-68
2023/01/06 08:13:12;;;;;;;0.57;0.40;;;9.40;99.90;;;;;;5046329;28;21026;-67
2023/01/06 08:15:39;;;;;;;0.80;0.50;;;9.40;99.90;;;;;;5049012;28;20629;-67
2023/01/06 08:18:06;;;;;;;3.50;0.40;;;9.50;99.90;;;;;;5048359;28;20622;-67
2023/01/06 08:20:33;;;;;;;0.40;0.30;;;9.50;99.90;;;;;;5049056;28;20618;-67
2023/01/06 08:23:02;;;;;;;0.30;0.30;;;9.50;99.90;;;;;;5047453;28;21009;-67
2023/01/06 08:25:29;;;;;;;0.40;0.20;;;9.60;99.90;;;;;;5047898;28;20633;-67
2023/01/06 08:27:57;;;;;;;0.73;0.73;;;9.50;99.90;;;;;;5048393;28;20633;-67
2023/01/06 08:30:24;;;;;;;1.00;0.90;;;9.50;99.90;;;;;;5048663;28;20634;-68
2023/01/06 08:32:51;;;;;;;2.20;0.60;;;9.50;99.90;;;;;;5047662;28;20622;-67
2023/01/06 08:35:18;;;;;;;0.30;0.27;;;9.50;99.90;;;;;;5047726;28;21195;-67
2023/01/06 08:37:44;;;;;;;0.97;0.60;;;9.50;99.90;;;;;;5047802;28;21175;-67
2023/01/06 08:40:13;;;;;;;0.50;0.50;;;9.40;99.90;;;;;;5047119;28;20989;-67
2023/01/06 08:42:40;;;;;;;0.50;0.30;;;9.40;99.90;;;;;;5046489;28;20658;-66
2023/01/06 08:45:07;;;;;;;0.60;0.57;;;9.40;99.90;;;;;;5047953;28;20977;-67
2023/01/06 08:47:35;;;;;;;0.50;0.43;;;9.80;99.90;;;;;;5048390;28;20638;-67
2023/01/06 08:50:02;;;;;;;0.40;0.30;;;9.30;99.90;;;;;;5047791;28;21267;-67
2023/01/06 08:52:29;;;;;;;1.03;0.50;;;9.30;99.90;;;;;;5046850;28;21307;-68
2023/01/06 08:54:56;;;;;;;1.90;1.07;;;9.30;99.90;;;;;;5047945;28;21214;-68
2023/01/06 08:57:24;;;;;;;1.17;0.60;;;9.40;99.90;;;;;;5047805;28;20630;-68
2023/01/06 08:59:50;;;;;;;0.60;0.53;;;9.30;99.90;;;;;;5038766;28;20974;-68
2023/01/06 09:02:17;;;;;;;0.80;0.77;;;9.40;99.90;;;;;;5046438;28;20670;-66
2023/01/06 09:04:47;;;;;;;0.80;0.40;;;9.40;99.90;;;;;;5047551;28;20618;-67
2023/01/06 09:07:14;;;;;;;0.43;0.30;;;9.30;99.90;;;;;;5046995;28;20636;-66
2023/01/06 09:09:44;;;;;;;0.53;0.53;;;9.30;99.90;;;;;;5038176;28;21207;-66
2023/01/06 09:12:10;;;;;;;3.30;1.07;;;9.30;99.90;;;;;;5046623;28;20680;-66
2023/01/06 09:14:39;;;;;;;0.40;0.30;;;9.30;99.90;;;;;;5047928;28;20636;-66
2023/01/06 09:17:05;;;;;;;0.50;0.30;;;9.30;99.90;;;;;;5047965;28;21198;-67
2023/01/06 09:19:32;;;;;;;0.30;0.30;;;9.30;99.90;;;;;;5047010;28;21233;-66
2023/01/06 09:21:59;;;;;;;0.70;0.50;;;9.20;99.90;;;;;;5046808;28;21298;-66
2023/01/06 09:24:26;;;;;;;1.07;0.97;;;9.20;99.90;;;;;;5047494;28;20734;-66
2023/01/06 09:26:52;;;;;;;0.50;0.30;;;9.20;99.90;;;;;;5047587;28;20629;-66
2023/01/06 09:29:20;;;;;;;0.57;0.40;;;9.20;99.90;;;;;;5047509;28;20623;-66
2023/01/06 09:31:48;;;;;;;1.27;0.50;;;9.20;99.90;;;;;;5046822;28;20638;-66
2023/01/06 09:34:15;;;;;;;0.50;0.47;;;9.30;99.90;;;;;;5046720;28;20904;-66
2023/01/06 09:36:42;;;;;;;0.87;0.60;;;9.30;99.90;;;;;;5047266;28;20638;-66
2023/01/06 09:39:08;;;;;;;1.30;0.50;;;9.40;99.90;;;;;;5047247;28;20749;-66
2023/01/06 09:42:06;;;;;;;0.30;0.30;;;9.50;99.90;;;;;;5046325;28;21226;-65
2023/01/06 09:44:36;;;;;;;1.53;0.70;;;9.50;99.90;;;;;;5045585;28;20628;-66
2023/01/06 09:47:04;;;;;;;0.50;0.50;;;9.50;99.90;;;;;;5047358;28;20627;-66
2023/01/06 09:49:42;;;;;;;0.50;0.30;;;9.60;99.90;;;;;;5046592;28;20998;-66
2023/01/06 09:52:17;;;;;;;0.50;0.37;;;9.60;99.90;;;;;;5047556;28;20629;-66
2023/01/06 09:54:51;;;;;;;0.30;0.27;;;9.60;99.90;;;;;;5051012;28;20642;-66
2023/01/06 09:57:25;;;;;;;0.60;0.43;;;9.70;99.90;;;;;;5050505;28;20618;-66
2023/01/06 09:59:56;;;;;;;0.30;0.20;;;9.70;99.90;;;;;;5051335;28;20634;-66
2023/01/06 10:02:29;;;;;;;2.93;0.30;;;9.70;99.90;;;;;;5050215;28;20765;-68
2023/01/06 10:04:56;;;;;;;0.40;0.30;;;9.80;99.90;;;;;;5050946;28;20631;-66
2023/01/06 10:07:29;;;;;;;0.30;0.20;;;9.90;99.90;;;;;;5050686;28;20622;-68
2023/01/06 10:10:05;;;;;;;0.40;0.30;;;9.90;99.90;;;;;;5050924;28;20788;-67
2023/01/06 10:12:46;;;;;;;0.30;0.30;;;10.00;99.90;;;;;;5049706;28;20644;-66
2023/01/06 10:15:20;;;;;;;0.80;0.70;;;10.10;99.90;;;;;;5051156;28;20630;-66
2023/01/06 10:17:59;;;;;;;0.60;0.43;;;10.10;99.90;;;;;;5050074;28;20851;-67
2023/01/06 10:20:52;;;;;;;0.50;0.30;;;10.00;99.90;;;;;;5051419;28;20614;-67
2023/01/06 10:23:35;;;;;;;0.63;0.33;;;10.00;99.90;;;;;;5050442;28;20665;-67
2023/01/06 10:26:11;;;;;;;0.50;0.33;;;10.00;99.90;;;;;;5050324;28;20641;-67
2023/01/06 10:28:42;;;;;;;0.70;0.70;;;9.90;99.90;;;;;;5050598;28;20618;-67
2023/01/06 10:31:12;;;;;;;0.40;0.30;;;10.00;99.90;;;;;;5050333;28;20966;-67
2023/01/06 10:33:43;;;;;;;1.90;0.53;;;10.20;99.90;;;;;;5050908;28;20629;-66
2023/01/06 10:36:13;;;;;;;0.63;0.63;;;10.10;99.90;;;;;;5050665;28;20633;-67
2023/01/06 10:38:42;;;;;;;0.40;0.20;;;10.20;99.90;;;;;;5050457;28;20622;-67
2023/01/06 10:41:14;;;;;;;0.30;0.27;;;10.50;99.90;;;;;;5049920;28;21100;-66
2023/01/06 10:43:41;;;;;;;0.47;0.47;;;10.60;99.90;;;;;;5044670;28;21125;-66
2023/01/06 10:46:08;;;;;;;0.67;0.67;;;10.70;99.90;;;;;;5050382;28;21205;-66
2023/01/06 10:48:35;;;;;;;0.80;0.30;;;10.80;99.90;;;;;;5049786;28;21299;-67
2023/01/06 10:51:33;;;;;;;0.40;0.30;;;10.80;99.90;;;;;;5049632;28;20204;-67
2023/01/06 10:54:03;;;;;;;0.30;0.20;;;10.90;99.90;;;;;;5050361;28;20629;-66
2023/01/06 10:56:32;;;;;;;0.30;0.30;;;11.10;99.90;;;;;;5049942;28;20630;-66
2023/01/06 10:59:06;;;;;;;0.30;0.20;;;11.20;99.90;;;;;;5049986;28;20637;-66
2023/01/06 11:01:33;;;;;;;0.50;0.30;;;11.20;99.90;;;;;;5048606;28;20728;-68
2023/01/06 11:04:08;;;;;;;0.30;0.20;;;11.10;99.90;;;;;;5048802;28;20622;-67
2023/01/06 11:06:39;;;;;;;0.30;0.20;;;11.00;99.90;;;;;;5050165;28;21140;-67
2023/01/06 11:09:07;;;;;;;0.33;0.30;;;10.90;99.90;;;;;;5050031;28;20978;-67
2023/01/06 11:11:47;;;;;;;0.40;0.30;;;10.80;99.90;;;;;;5049026;28;20637;-67
2023/01/06 11:14:18;;;;;;;0.30;0.30;;;10.90;99.90;;;;;;5049003;28;20996;-67
2023/01/06 11:16:56;;;;;;;0.57;0.30;;;10.90;99.90;;;;;;5049894;28;21254;-67
2023/01/06 11:19:32;;;;;;;1.37;0.87;;;11.10;99.90;;;;;;5049530;28;20630;-69
2023/01/06 11:22:01;;;;;;;0.40;0.20;;;11.10;99.90;;;;;;5048936;28;20654;-67
2023/01/06 11:24:29;;;;;;;0.30;0.20;;;11.00;99.90;;;;;;5049434;28;21361;-68
2023/01/06 11:26:57;;;;;;;1.43;0.57;;;11.00;99.90;;;;;;5049388;28;20637;-66
2023/01/06 11:29:27;;;;;;;0.60;0.50;;;11.00;99.90;;;;;;5049215;28;21064;-67
2023/01/06 11:31:55;;;;;;;0.30;0.30;;;11.00;99.90;;;;;;5049154;28;20626;-66
2023/01/06 11:34:24;;;;;;;0.30;0.30;;;10.90;99.90;;;;;;5049520;28;20623;-67
2023/01/06 11:36:51;;;;;;;0.53;0.37;;;10.70;99.90;;;;;;5049197;28;20636;-67
2023/01/06 11:39:26;;;;;;;0.50;0.27;;;10.70;99.90;;;;;;5048941;28;20642;-69
2023/01/06 11:41:55;;;;;;;1.13;1.03;;;10.70;99.90;;;;;;5048685;28;20625;-67
2023/01/06 11:44:29;;;;;;;3.27;1.33;;;10.60;99.90;;;;;;5048384;28;20640;-67
2023/01/06 11:47:00;;;;;;;0.30;0.20;;;10.70;99.90;;;;;;5049714;28;21024;-67
2023/01/06 11:49:32;;;;;;;0.60;0.40;;;10.70;99.90;;;;;;5049341;28;20997;-67
2023/01/06 11:52:01;;;;;;;0.50;0.37;;;10.70;99.90;;;;;;5048811;28;20622;-66
2023/01/06 11:54:36;;;;;;;0.73;0.37;;;10.80;99.90;;;;;;5049149;28;20680;-67
2023/01/06 11:57:22;;;;;;;0.33;0.20;;;10.90;99.90;;;;;;5049292;28;20631;-67
2023/01/06 12:00:05;;;;;;;0.30;0.20;;;10.90;99.90;;;;;;5035009;28;20638;-67
2023/01/06 12:02:41;;;;;;;0.40;0.20;;;10.90;99.90;;;;;;5043965;28;20684;-67
2023/01/06 12:05:21;;;;;;;0.40;0.27;;;10.90;99.90;;;;;;5049008;28;20644;-66
2023/01/06 12:07:51;;;;;;;0.30;0.20;;;10.90;99.90;;;;;;5048326;28;20633;-67
2023/01/06 12:10:23;;;;;;;0.30;0.20;;;10.80;99.90;;;;;;5048899;28;21201;-68
2023/01/06 12:12:50;;;;;;;0.40;0.27;;;10.80;99.90;;;;;;5048268;28;20623;-67
2023/01/06 12:15:19;;;;;;;0.40;0.30;;;10.80;99.90;;;;;;5048220;28;20680;-67
2023/01/06 12:17:50;;;;;;;0.80;0.60;;;10.70;99.90;;;;;;5048106;28;20708;-67
2023/01/06 12:20:22;;;;;;;0.50;0.40;;;10.80;99.90;;;;;;5049123;28;20621;-67
2023/01/06 12:22:52;;;;;;;3.13;0.70;;;10.90;99.90;;;;;;5046888;28;20673;-67
2023/01/06 12:25:24;;;;;;;0.30;0.20;;;10.70;99.90;;;;;;5049047;28;20618;-67
2023/01/06 12:27:55;;;;;;;0.40;0.40;;;11.00;99.90;;;;;;5047044;28;21261;-66
2023/01/06 12:30:28;;;;;;;0.50;0.40;;;11.00;99.90;;;;;;5048394;28;20206;-66
2023/01/06 12:33:01;;;;;;;0.37;0.30;;;11.10;99.90;;;;;;5047132;28;20644;-67
2023/01/06 12:35:32;;;;;;;0.30;0.30;;;11.20;99.90;;;;;;5047975;28;20733;-66
2023/01/06 12:38:07;;;;;;;0.40;0.20;;;11.20;99.90;;;;;;5048112;28;20751;-67
2023/01/06 12:40:41;;;;;;;0.50;0.30;;;11.20;99.90;;;;;;5048258;28;20728;-67
2023/01/06 12:43:16;;;;;;;0.80;0.47;;;11.20;99.90;;;;;;5046720;28;20668;-66
2023/01/06 12:45:49;;;;;;;1.47;0.83;;;11.20;99.90;;;;;;5047825;28;20624;-67
2023/01/06 12:48:20;;;;;;;0.70;0.70;;;11.20;99.90;;;;;;5048383;28;20627;-67
2023/01/06 12:50:54;;;;;;;0.60;0.50;;;11.10;99.90;;;;;;5048090;28;20616;-67
2023/01/06 12:53:26;;;;;;;0.90;0.90;;;11.10;99.90;;;;;;5037497;28;20627;-67
2023/01/06 12:56:06;;;;;;;1.40;0.90;;;11.10;99.90;;;;;;5048418;28;20629;-67
2023/01/06 12:58:44;;;;;;;1.73;0.77;;;11.10;99.90;;;;;;5047333;28;20650;-67
2023/01/06 13:01:18;;;;;;;0.83;0.83;;;11.10;99.90;;;;;;5046967;28;21175;-67
2023/01/06 13:04:15;;;;;;;0.70;0.70;;;11.10;99.90;;;;;;5047916;28;20808;-67
2023/01/06 13:07:02;;;;;;;0.90;0.50;;;11.10;99.90;;;;;;5046861;28;20638;-68
2023/01/06 13:09:40;;;;;;;0.97;0.47;;;11.10;99.90;;;;;;5047463;28;20623;-68
2023/01/06 13:12:26;;;;;;;1.30;1.20;;;11.10;99.90;;;;;;5046663;28;20644;-67
2023/01/06 13:14:59;;;;;;;0.70;0.70;;;11.10;99.90;;;;;;5047023;28;20626;-68